createdAt,value
2023-03-15T00:00:07.585Z,98514.71
2023-03-15T00:02:55.762Z,98520.43
2023-03-15T00:05:23.652Z,98525.59
2023-03-15T00:07:51.822Z,98529.96
2023-03-15T00:10:19.946Z,98531.44
2023-03-15T00:12:48.344Z,98543.34
2023-03-15T00:15:16.455Z,98553.58
2023-03-15T00:17:45.147Z,98560.08
2023-03-15T00:20:17.009Z,98568.27
2023-03-15T00:22:45.262Z,98585.11
2023-03-15T00:25:13.593Z,98608.60
2023-03-15T00:27:41.768Z,98633.50
2023-03-15T00:30:10.317Z,98662.75
2023-03-15T00:32:38.429Z,98677.39
2023-03-15T00:35:06.635Z,98686.80
2023-03-15T00:37:37.670Z,98686.05
2023-03-15T00:40:09.566Z,98704.54
2023-03-15T00:42:39.795Z,98731.65
2023-03-15T00:45:09.099Z,98746.14
2023-03-15T00:47:37.057Z,98762.70
2023-03-15T00:50:05.402Z,98771.66
2023-03-15T00:52:36.897Z,98788.85
2023-03-15T00:55:05.841Z,98795.20
2023-03-15T00:57:35.345Z,98800.67
2023-03-15T01:00:05.114Z,98816.45
2023-03-15T01:02:33.832Z,98824.11
2023-03-15T01:05:02.088Z,98829.36
2023-03-15T01:07:33.685Z,98841.41
2023-03-15T01:10:03.458Z,98852.59
2023-03-15T01:12:33.105Z,98858.62
2023-03-15T01:15:03.114Z,98858.10
2023-03-15T01:17:31.423Z,98856.23
2023-03-15T01:20:00.272Z,98870.30
2023-03-15T01:22:28.291Z,98880.91
2023-03-15T01:24:56.862Z,98879.70
2023-03-15T01:27:24.938Z,98892.70
2023-03-15T01:29:55.542Z,98897.14
2023-03-15T01:32:23.601Z,98907.05
2023-03-15T01:34:52.883Z,98907.35
2023-03-15T01:37:24.705Z,98918.11
2023-03-15T01:39:53.193Z,98936.05
2023-03-15T01:42:21.522Z,98959.66
2023-03-15T01:44:58.032Z,98965.31
2023-03-15T01:47:26.184Z,98977.11
2023-03-15T01:50:02.742Z,98998.49
2023-03-15T01:52:36.056Z,99004.31
2023-03-15T01:55:19.509Z,99006.19
2023-03-15T01:58:14.326Z,99016.45
2023-03-15T02:00:44.627Z,99026.19
2023-03-15T02:03:38.878Z,99028.23
2023-03-15T02:06:10.553Z,99048.05
2023-03-15T02:09:09.694Z,99064.13
2023-03-15T02:11:39.866Z,99069.94
2023-03-15T02:14:12.819Z,99075.55
2023-03-15T02:16:44.531Z,99086.14
2023-03-15T02:19:36.953Z,99093.30
2023-03-15T02:22:29.100Z,99094.81
2023-03-15T02:25:17.061Z,99111.36
2023-03-15T02:27:45.519Z,99120.25
2023-03-15T02:30:16.011Z,99119.53
2023-03-15T02:32:45.372Z,99125.89
2023-03-15T02:35:26.773Z,99135.63
2023-03-15T02:37:54.856Z,99145.02
2023-03-15T02:40:25.350Z,99154.77
2023-03-15T02:43:07.383Z,99159.38
2023-03-15T02:45:36.923Z,99166.21
2023-03-15T02:48:06.691Z,99173.23
2023-03-15T02:50:34.808Z,99175.79
2023-03-15T02:53:05.995Z,99178.86
2023-03-15T02:55:34.259Z,99191.52
2023-03-15T02:58:03.122Z,99200.40
2023-03-15T03:00:32.332Z,99215.95
2023-03-15T03:03:00.409Z,99219.54
2023-03-15T03:05:53.925Z,99219.72
2023-03-15T03:08:22.858Z,99223.14
2023-03-15T03:10:51.647Z,99226.60
2023-03-15T03:13:19.624Z,99233.11
2023-03-15T03:15:50.249Z,99240.31
2023-03-15T03:18:18.220Z,99246.48
2023-03-15T03:20:47.420Z,99250.44
2023-03-15T03:23:15.584Z,99255.27
2023-03-15T03:25:45.798Z,99256.45
2023-03-15T03:28:13.815Z,99266.73
2023-03-15T03:30:41.989Z,99275.60
2023-03-15T03:33:09.971Z,99281.06
2023-03-15T03:35:38.287Z,99284.99
2023-03-15T03:38:06.346Z,99297.14
2023-03-15T03:40:39.795Z,99307.52
2023-03-15T03:43:08.961Z,99306.48
2023-03-15T03:45:37.077Z,99307.50
2023-03-15T03:48:06.293Z,99313.00
2023-03-15T03:50:35.431Z,99320.84
2023-03-15T03:53:03.837Z,99333.64
2023-03-15T03:55:34.454Z,99336.91
2023-03-15T03:58:02.470Z,99340.98
2023-03-15T04:05:11.308Z,99347.98
2023-03-15T04:07:41.561Z,99356.19
2023-03-15T04:10:14.875Z,99360.27
2023-03-15T04:12:45.837Z,99361.31
2023-03-15T04:15:15.403Z,99362.17
2023-03-15T04:17:43.607Z,99373.09
2023-03-15T04:20:13.050Z,99373.58
2023-03-15T04:22:49.867Z,99370.32
2023-03-15T04:25:44.025Z,99371.01
2023-03-15T04:28:12.012Z,99385.34
2023-03-15T04:34:52.256Z,99401.71
2023-03-15T04:37:42.081Z,99408.22
2023-03-15T04:40:23.528Z,99409.71
2023-03-15T04:43:03.043Z,99410.76
2023-03-15T04:45:46.991Z,99408.68
2023-03-15T04:48:46.214Z,99412.77
2023-03-15T04:51:30.909Z,99411.74
2023-03-15T04:54:11.256Z,99413.44
2023-03-15T04:56:58.117Z,99417.04
2023-03-15T04:59:43.276Z,99426.13
2023-03-15T05:02:51.414Z,99434.33
2023-03-15T05:05:34.113Z,99439.97
2023-03-15T05:08:35.660Z,99433.45
2023-03-15T05:11:21.257Z,99432.75
2023-03-15T05:13:51.180Z,99432.20
2023-03-15T05:16:57.899Z,99443.47
2023-03-15T05:19:49.253Z,99453.48
2023-03-15T05:22:36.386Z,99463.21
2023-03-15T05:25:14.907Z,99472.45
2023-03-15T05:28:17.626Z,99479.09
2023-03-15T05:30:47.554Z,99475.98
2023-03-15T05:33:30.785Z,99479.27
2023-03-15T05:36:16.867Z,99482.51
2023-03-15T05:39:02.633Z,99484.73
2023-03-15T05:41:48.105Z,99498.21
2023-03-15T05:44:40.730Z,99504.02
2023-03-15T05:47:24.717Z,99501.93
2023-03-15T05:50:07.002Z,99509.63
2023-03-15T05:52:51.899Z,99522.63
2023-03-15T05:55:35.445Z,99526.25
2023-03-15T05:58:07.809Z,99538.21
2023-03-15T06:00:55.888Z,99542.02
2023-03-15T06:03:34.088Z,99540.86
2023-03-15T06:06:08.661Z,99538.34
2023-03-15T06:08:38.587Z,99544.27
2023-03-15T06:11:05.501Z,99542.44
2023-03-15T06:13:33.090Z,99555.64
2023-03-15T06:16:00.533Z,99560.42
2023-03-15T06:18:27.760Z,99561.65
2023-03-15T06:20:54.864Z,99561.54
2023-03-15T06:23:21.624Z,99563.98
2023-03-15T06:25:49.114Z,99571.89
2023-03-15T06:28:16.111Z,99575.86
2023-03-15T06:30:51.769Z,99588.23
2023-03-15T06:33:19.445Z,99604.69
2023-03-15T06:35:47.075Z,99611.44
2023-03-15T06:38:14.512Z,99615.83
2023-03-15T06:40:41.744Z,99631.16
2023-03-15T06:43:08.576Z,99632.46
2023-03-15T06:45:35.842Z,99630.27
2023-03-15T06:48:04.092Z,99638.11
2023-03-15T06:50:44.209Z,99646.70
2023-03-15T06:53:13.593Z,99660.24
2023-03-15T06:55:40.424Z,99666.38
2023-03-15T06:58:07.252Z,99670.52
2023-03-15T07:00:33.854Z,99675.52
2023-03-15T07:03:02.383Z,99679.86
2023-03-15T07:05:29.718Z,99683.86
2023-03-15T07:07:56.689Z,99691.73
2023-03-15T07:10:23.936Z,99694.92
2023-03-15T07:12:52.048Z,99699.95
2023-03-15T07:15:18.854Z,99694.22
2023-03-15T07:17:45.407Z,99688.16
2023-03-15T07:20:12.468Z,99697.85
2023-03-15T07:22:39.420Z,99694.23
2023-03-15T07:25:06.956Z,99699.52
2023-03-15T07:27:33.679Z,99705.29
2023-03-15T07:30:00.597Z,99710.38
2023-03-15T07:32:27.598Z,99703.00
2023-03-15T07:34:57.590Z,99698.78
2023-03-15T07:37:24.480Z,99701.42
2023-03-15T07:39:51.175Z,99699.29
2023-03-15T07:42:17.914Z,99697.54
2023-03-15T07:44:49.377Z,99703.46
2023-03-15T07:47:16.417Z,99707.38
2023-03-15T07:49:43.219Z,99711.78
2023-03-15T07:52:10.201Z,99713.73
2023-03-15T07:54:37.040Z,99716.03
2023-03-15T07:57:04.612Z,99725.76
2023-03-15T07:59:31.659Z,99725.39
2023-03-15T08:02:00.221Z,99731.65
2023-03-15T08:04:28.094Z,99738.94
2023-03-15T08:06:54.743Z,99740.17
2023-03-15T08:09:21.321Z,99748.77
2023-03-15T08:11:48.195Z,99759.19
2023-03-15T08:14:14.835Z,99759.36
2023-03-15T08:16:41.465Z,99762.57
2023-03-15T08:19:08.648Z,99770.80
2023-03-15T08:21:35.374Z,99778.56
2023-03-15T08:24:01.927Z,99786.13
2023-03-15T08:26:28.471Z,99787.85
2023-03-15T08:28:55.532Z,99792.33
2023-03-15T08:31:23.096Z,99798.90
2023-03-15T08:33:50.089Z,99800.31
2023-03-15T08:36:16.813Z,99801.69
2023-03-15T08:38:43.376Z,99803.05
2023-03-15T08:41:10.247Z,99809.88
2023-03-15T08:43:37.003Z,99812.14
2023-03-15T08:46:03.902Z,99817.50
2023-03-15T08:48:31.316Z,99826.58
2023-03-15T08:51:03.921Z,99829.36
2023-03-15T08:53:31.556Z,99840.66
2023-03-15T08:55:58.655Z,99840.33
2023-03-15T08:58:25.518Z,99846.11
2023-03-15T09:00:53.009Z,99840.45
2023-03-15T09:03:20.264Z,99838.57
2023-03-15T09:05:47.006Z,99846.52
2023-03-15T09:08:13.724Z,99848.83
2023-03-15T09:10:40.240Z,99847.09
2023-03-15T09:13:06.966Z,99854.67
2023-03-15T09:15:33.511Z,99857.87
2023-03-15T09:18:00.108Z,99865.10
2023-03-15T09:20:27.997Z,99864.52
2023-03-15T09:22:57.399Z,99861.98
2023-03-15T09:25:25.783Z,99860.55
2023-03-15T09:27:52.847Z,99867.14
2023-03-15T09:30:19.736Z,99869.67
2023-03-15T09:32:46.893Z,99870.77
2023-03-15T09:35:16.308Z,99873.65
2023-03-15T09:37:42.898Z,99870.63
2023-03-15T09:40:26.930Z,99871.44
2023-03-15T09:43:01.394Z,99872.58
2023-03-15T09:45:40.796Z,99869.81
2023-03-15T09:48:16.302Z,99859.23
2023-03-15T09:50:50.252Z,99859.23
2023-03-15T09:53:33.291Z,99859.13
2023-03-15T09:55:59.915Z,99856.67
2023-03-15T09:58:35.206Z,99853.98
2023-03-15T10:01:13.942Z,99859.84
2023-03-15T10:03:48.458Z,99861.17
2023-03-15T10:06:19.402Z,99861.97
2023-03-15T10:08:46.999Z,99858.45
2023-03-15T10:11:22.614Z,99860.88
2023-03-15T10:14:13.984Z,99851.67
2023-03-15T10:16:43.616Z,99855.33
2023-03-15T10:19:27.867Z,99855.86
2023-03-15T10:22:03.522Z,99857.63
2023-03-15T10:24:33.075Z,99857.16
2023-03-15T10:27:13.628Z,99867.15
2023-03-15T10:29:40.767Z,99871.13
2023-03-15T10:32:17.633Z,99871.61
2023-03-15T10:34:52.746Z,99870.70
2023-03-15T10:37:23.127Z,99874.76
2023-03-15T10:39:56.369Z,99868.52
2023-03-15T10:42:33.224Z,99864.28
2023-03-15T10:45:22.306Z,99863.02
2023-03-15T10:47:59.680Z,99858.09
2023-03-15T10:50:30.428Z,99858.17
2023-03-15T10:53:02.879Z,99855.59
2023-03-15T10:55:30.757Z,99859.03
2023-03-15T10:57:59.506Z,99858.15
2023-03-15T11:04:42.319Z,99862.52
2023-03-15T11:07:13.565Z,99866.17
2023-03-15T11:09:44.849Z,99865.55
2023-03-15T11:12:21.575Z,99866.23
2023-03-15T11:14:58.422Z,99868.84
2023-03-15T11:17:30.677Z,99870.63
2023-03-15T11:20:05.893Z,99866.52
2023-03-15T11:22:33.842Z,99868.22
2023-03-15T11:25:01.947Z,99865.76
2023-03-15T11:27:31.839Z,99868.30
2023-03-15T11:30:01.939Z,99878.33
2023-03-15T11:32:32.029Z,99876.73
2023-03-15T11:35:06.243Z,99878.80
2023-03-15T11:38:14.493Z,99871.33
2023-03-15T11:40:53.644Z,99872.21
2023-03-15T11:44:02.159Z,99875.65
2023-03-15T11:46:36.872Z,99872.02
2023-03-15T11:49:27.052Z,99872.23
2023-03-15T11:51:57.020Z,99875.48
2023-03-15T11:54:28.583Z,99874.06
2023-03-15T11:57:04.535Z,99871.19
2023-03-15T11:59:40.249Z,99877.95
2023-03-15T12:02:11.456Z,99880.73
2023-03-15T12:04:44.513Z,99882.69
2023-03-15T12:07:15.449Z,99891.35
2023-03-15T12:09:49.961Z,99892.23
2023-03-15T12:12:24.045Z,99894.85
2023-03-15T12:15:05.407Z,99892.93
2023-03-15T12:17:56.322Z,99892.65
2023-03-15T12:20:40.885Z,99895.48
2023-03-15T12:23:19.986Z,99905.61
2023-03-15T12:25:55.427Z,99908.67
2023-03-15T12:28:44.167Z,99909.85
2023-03-15T12:31:14.483Z,99915.30
2023-03-15T12:33:52.839Z,99918.20
2023-03-15T12:36:40.075Z,99921.30
2023-03-15T12:39:16.909Z,99923.65
2023-03-15T12:41:47.411Z,99918.33
2023-03-15T12:44:33.747Z,99917.80
2023-03-15T12:47:04.016Z,99921.47
2023-03-15T12:49:39.625Z,99921.55
2023-03-15T12:52:34.391Z,99922.48
2023-03-15T12:55:18.283Z,99923.84
2023-03-15T12:57:53.983Z,99932.63
2023-03-15T13:00:23.674Z,99939.63
2023-03-15T13:03:19.872Z,99950.52
2023-03-15T13:06:03.898Z,99946.86
2023-03-15T13:08:44.384Z,99958.02
2023-03-15T13:11:23.719Z,99958.88
2023-03-15T13:14:00.494Z,99959.89
2023-03-15T13:16:46.755Z,99959.79
2023-03-15T13:19:19.951Z,99957.98
2023-03-15T13:22:07.082Z,99964.70
2023-03-15T13:25:06.133Z,99962.10
2023-03-15T13:28:11.843Z,99965.41
2023-03-15T13:30:47.250Z,99973.59
2023-03-15T13:33:26.550Z,99976.01
2023-03-15T13:36:01.289Z,99979.84
2023-03-15T13:38:31.471Z,99979.68
2023-03-15T13:41:05.298Z,99982.45
2023-03-15T13:43:37.302Z,99981.60
2023-03-15T13:46:09.244Z,99983.73
2023-03-15T13:48:47.580Z,99982.61
2023-03-15T13:51:28.514Z,99982.88
2023-03-15T13:54:02.410Z,99993.75
2023-03-15T13:56:46.979Z,99994.25
2023-03-15T13:59:18.015Z,99999.36
2023-03-15T14:01:46.578Z,99999.05
2023-03-15T14:04:18.481Z,99998.01
2023-03-15T14:06:47.837Z,99997.77
2023-03-15T14:09:28.277Z,99999.05
2023-03-15T14:12:05.818Z,100000.13
2023-03-15T14:14:38.770Z,100005.42
2023-03-15T14:17:18.183Z,100002.30
2023-03-15T14:19:55.962Z,100007.55
2023-03-15T14:22:24.927Z,100004.52
2023-03-15T14:24:54.199Z,100008.90
2023-03-15T14:27:27.011Z,100009.71
2023-03-15T14:29:59.032Z,100015.48
2023-03-15T14:32:31.677Z,100015.75
2023-03-15T14:35:21.524Z,100014.85
2023-03-15T14:38:04.343Z,100021.87
2023-03-15T14:40:35.576Z,100022.21
2023-03-15T14:43:06.740Z,100023.80
2023-03-15T14:45:38.319Z,100029.34
2023-03-15T14:48:12.117Z,100031.43
2023-03-15T14:50:45.792Z,100033.36
2023-03-15T14:53:19.086Z,100030.21
2023-03-15T14:55:47.361Z,100021.64
2023-03-15T14:58:21.306Z,100029.53
2023-03-15T15:00:52.769Z,100033.73
2023-03-15T15:03:34.460Z,100041.23
2023-03-15T15:06:03.088Z,100043.92
2023-03-15T15:08:32.743Z,100047.50
2023-03-15T15:11:01.238Z,100044.92
2023-03-15T15:13:31.734Z,100049.69
2023-03-15T15:16:00.012Z,100049.27
2023-03-15T15:18:30.373Z,100054.98
2023-03-15T15:21:18.908Z,100054.85
2023-03-15T15:23:58.065Z,100054.54
2023-03-15T15:26:30.907Z,100061.06
2023-03-15T15:28:59.792Z,100063.51
2023-03-15T15:31:29.202Z,100066.21
2023-03-15T15:33:57.583Z,100075.45
2023-03-15T15:36:52.247Z,100078.16
2023-03-15T15:39:29.745Z,100075.16
2023-03-15T15:41:57.867Z,100084.16
2023-03-15T15:44:27.329Z,100082.02
2023-03-15T15:46:55.958Z,100084.84
2023-03-15T15:49:24.087Z,100086.06
2023-03-15T15:51:52.278Z,100094.52
2023-03-15T15:54:26.161Z,100100.08
2023-03-15T15:56:57.866Z,100102.56
2023-03-15T15:59:26.308Z,100103.98
2023-03-15T16:02:03.254Z,100102.83
2023-03-15T16:04:32.678Z,100103.42
2023-03-15T16:07:04.243Z,100106.09
2023-03-15T16:09:36.207Z,100109.06
2023-03-15T16:12:12.555Z,100102.89
2023-03-15T16:14:41.773Z,100108.49
2023-03-15T16:17:24.062Z,100112.30
2023-03-15T16:19:52.686Z,100114.36
2023-03-15T16:22:22.848Z,100112.20
2023-03-15T16:24:55.200Z,100118.37
2023-03-15T16:27:26.964Z,100124.19
2023-03-15T16:29:55.889Z,100126.97
2023-03-15T16:32:41.017Z,100132.63
2023-03-15T16:35:15.751Z,100127.84
2023-03-15T16:37:45.971Z,100131.39
2023-03-15T16:40:35.312Z,100133.27
2023-03-15T16:43:06.365Z,100139.39
2023-03-15T16:45:34.453Z,100143.36
2023-03-15T16:48:02.714Z,100139.07
2023-03-15T16:50:32.585Z,100146.77
2023-03-15T16:53:05.475Z,100151.16
2023-03-15T16:55:34.006Z,100154.96
2023-03-15T16:58:11.645Z,100155.89
2023-03-15T17:00:39.719Z,100156.99
2023-03-15T17:03:08.264Z,100158.73
2023-03-15T17:05:36.780Z,100162.70
2023-03-15T17:08:05.191Z,100167.63
2023-03-15T17:10:33.264Z,100170.52
2023-03-15T17:13:02.783Z,100171.07
2023-03-15T17:15:31.258Z,100178.43
2023-03-15T17:18:00.340Z,100182.02
2023-03-15T17:20:29.882Z,100187.65
2023-03-15T17:23:04.881Z,100185.20
2023-03-15T17:25:34.324Z,100184.71
2023-03-15T17:28:02.606Z,100188.48
2023-03-15T17:30:36.345Z,100189.14
2023-03-15T17:33:05.343Z,100197.74
2023-03-15T17:35:39.918Z,100201.22
2023-03-15T17:38:19.027Z,100202.83
2023-03-15T17:40:47.488Z,100209.39
2023-03-15T17:43:17.024Z,100208.57
2023-03-15T17:45:45.860Z,100211.04
2023-03-15T17:48:14.360Z,100207.33
2023-03-15T17:50:44.265Z,100209.45
2023-03-15T17:53:20.269Z,100213.92
2023-03-15T17:55:49.143Z,100214.91
2023-03-15T17:58:22.545Z,100219.42
2023-03-15T18:00:52.720Z,100226.48
2023-03-15T18:03:21.837Z,100231.42
2023-03-15T18:05:50.695Z,100230.70
2023-03-15T18:08:21.317Z,100228.29
2023-03-15T18:10:52.177Z,100228.94
2023-03-15T18:13:22.076Z,100230.16
2023-03-15T18:15:51.305Z,100231.88
2023-03-15T18:18:20.632Z,100229.52
2023-03-15T18:20:49.623Z,100237.77
2023-03-15T18:23:18.979Z,100233.77
2023-03-15T18:25:47.235Z,100239.69
2023-03-15T18:28:15.471Z,100249.22
2023-03-15T18:30:44.812Z,100251.36
2023-03-15T18:33:14.200Z,100254.60
2023-03-15T18:35:42.587Z,100258.08
2023-03-15T18:38:10.670Z,100261.57
2023-03-15T18:40:38.890Z,100260.67
2023-03-15T18:43:07.059Z,100264.97
2023-03-15T18:45:36.572Z,100266.23
2023-03-15T18:48:05.100Z,100266.21
2023-03-15T18:50:34.137Z,100267.23
2023-03-15T18:53:03.917Z,100272.08
2023-03-15T18:55:33.701Z,100267.48
2023-03-15T18:58:02.250Z,100268.91
2023-03-15T19:04:36.215Z,100269.48
2023-03-15T19:07:04.428Z,100276.55
2023-03-15T19:09:33.715Z,100277.55
2023-03-15T19:12:02.147Z,100279.58
2023-03-15T19:14:30.399Z,100281.23
2023-03-15T19:17:00.296Z,100284.32
2023-03-15T19:19:28.919Z,100284.92
2023-03-15T19:21:57.435Z,100288.77
2023-03-15T19:24:25.480Z,100293.20
2023-03-15T19:26:53.894Z,100296.40
2023-03-15T19:29:21.929Z,100298.59
2023-03-15T19:31:50.104Z,100298.61
2023-03-15T19:34:18.505Z,100305.15
2023-03-15T19:36:46.677Z,100310.63
2023-03-15T19:39:14.740Z,100309.17
2023-03-15T19:41:44.596Z,100310.04
2023-03-15T19:44:12.638Z,100307.91
2023-03-15T19:46:41.139Z,100308.61
2023-03-15T19:49:09.496Z,100310.23
2023-03-15T19:51:37.756Z,100312.20
2023-03-15T19:54:06.023Z,100314.66
2023-03-15T19:56:34.104Z,100318.02
2023-03-15T19:59:02.400Z,100316.01
2023-03-15T20:01:30.554Z,100317.27
2023-03-15T20:03:58.825Z,100325.42
2023-03-15T20:06:26.948Z,100328.52
2023-03-15T20:08:55.722Z,100329.39
2023-03-15T20:11:29.293Z,100332.27
2023-03-15T20:13:57.340Z,100331.91
2023-03-15T20:16:25.548Z,100332.56
2023-03-15T20:18:55.778Z,100332.41
2023-03-15T20:21:24.163Z,100335.38
2023-03-15T20:23:52.427Z,100339.52
2023-03-15T20:26:22.846Z,100339.71
2023-03-15T20:28:51.115Z,100340.66
2023-03-15T20:31:19.683Z,100339.03
2023-03-15T20:33:50.867Z,100339.68
2023-03-15T20:36:19.677Z,100336.97
2023-03-15T20:38:48.010Z,100337.14
2023-03-15T20:41:18.430Z,100335.37
2023-03-15T20:43:46.618Z,100332.91
2023-03-15T20:46:16.750Z,100333.27
2023-03-15T20:48:45.246Z,100335.22
2023-03-15T20:51:13.301Z,100339.52
2023-03-15T20:53:41.390Z,100339.52
2023-03-15T20:56:09.358Z,100344.27
2023-03-15T20:58:37.275Z,100345.11
2023-03-15T21:01:08.930Z,100348.89
2023-03-15T21:03:37.955Z,100350.13
2023-03-15T21:06:06.528Z,100349.55
2023-03-15T21:08:34.896Z,100352.92
2023-03-15T21:11:07.165Z,100353.77
2023-03-15T21:13:36.064Z,100355.89
2023-03-15T21:16:04.829Z,100355.73
2023-03-15T21:18:33.785Z,100358.88
2023-03-15T21:21:08.210Z,100360.10
2023-03-15T21:23:36.294Z,100359.60
2023-03-15T21:26:07.522Z,100363.50
2023-03-15T21:28:35.607Z,100365.94
2023-03-15T21:31:04.137Z,100372.31
2023-03-15T21:33:32.895Z,100375.50
2023-03-15T21:36:00.953Z,100378.33
2023-03-15T21:38:31.495Z,100380.46
2023-03-15T21:41:00.508Z,100377.94
2023-03-15T21:43:31.154Z,100380.77
2023-03-15T21:46:01.603Z,100379.29
2023-03-15T21:48:30.646Z,100377.58
2023-03-15T21:50:59.493Z,100379.95
2023-03-15T21:53:29.255Z,100376.73
2023-03-15T21:55:58.544Z,100380.20
2023-03-15T21:58:28.036Z,100383.07
2023-03-15T22:01:01.305Z,100386.23
2023-03-15T22:03:30.283Z,100386.65
2023-03-15T22:05:58.189Z,100388.27
2023-03-15T22:08:26.238Z,100389.83
2023-03-15T22:10:55.887Z,100393.06
2023-03-15T22:13:24.855Z,100395.27
2023-03-15T22:15:53.509Z,100401.42
2023-03-15T22:18:22.077Z,100401.83
2023-03-15T22:20:51.604Z,100405.33
2023-03-15T22:23:20.065Z,100409.98
2023-03-15T22:25:48.871Z,100413.08
2023-03-15T22:28:17.181Z,100410.84
2023-03-15T22:30:49.125Z,100413.58
2023-03-15T22:33:19.782Z,100424.62
2023-03-15T22:35:55.799Z,100421.13
2023-03-15T22:38:25.488Z,100421.02
2023-03-15T22:41:02.350Z,100423.38
2023-03-15T22:43:30.597Z,100428.83
2023-03-15T22:45:58.652Z,100431.13
2023-03-15T22:48:27.041Z,100435.94
2023-03-15T22:51:03.757Z,100439.58
2023-03-15T22:53:32.384Z,100437.06
2023-03-15T22:56:00.901Z,100438.32
2023-03-15T22:58:28.901Z,100441.66
2023-03-15T23:00:56.955Z,100447.91
2023-03-15T23:03:26.527Z,100445.66
2023-03-15T23:05:55.193Z,100450.02
2023-03-15T23:08:24.271Z,100449.23
2023-03-15T23:10:52.746Z,100453.58
2023-03-15T23:13:21.599Z,100454.67
2023-03-15T23:15:49.719Z,100462.36
2023-03-15T23:18:17.780Z,100465.29
2023-03-15T23:20:45.828Z,100467.13
2023-03-15T23:23:14.079Z,100470.70
2023-03-15T23:25:43.171Z,100474.10
2023-03-15T23:28:11.256Z,100475.61
2023-03-15T23:30:40.153Z,100476.64
2023-03-15T23:33:08.759Z,100482.77
2023-03-15T23:35:37.343Z,100483.91
2023-03-15T23:38:05.366Z,100486.60
2023-03-15T23:40:33.584Z,100485.44
2023-03-15T23:43:01.897Z,100488.62
2023-03-15T23:45:30.319Z,100494.41
2023-03-15T23:47:58.854Z,100496.16
2023-03-15T23:50:27.638Z,100502.15
2023-03-15T23:52:56.822Z,100501.90
2023-03-15T23:55:25.577Z,100505.05
2023-03-15T23:57:53.880Z,100508.77
